createdAt,value
2019-04-14T00:02:25.129Z,5.50
2019-04-14T00:04:55.577Z,5.50
2019-04-14T00:07:25.772Z,5.50
2019-04-14T00:09:56.297Z,5.50
2019-04-14T00:12:27.325Z,5.50
2019-04-14T00:14:57.600Z,5.40
2019-04-14T00:17:28.383Z,5.50
2019-04-14T00:19:58.827Z,5.50
2019-04-14T00:22:30.648Z,5.50
2019-04-14T00:25:00.407Z,5.50
2019-04-14T00:27:30.350Z,5.50
2019-04-14T00:30:01.134Z,5.50
2019-04-14T00:32:33.391Z,5.50
2019-04-14T00:35:12.371Z,5.50
2019-04-14T00:38:02.354Z,5.50
2019-04-14T00:40:37.459Z,5.50
2019-04-14T00:43:19.899Z,5.40
2019-04-14T00:46:04.405Z,5.30
2019-04-14T00:48:34.361Z,5.40
2019-04-14T00:51:04.850Z,5.30
2019-04-14T00:53:36.031Z,5.40
2019-04-14T00:56:06.211Z,5.40
2019-04-14T00:58:36.788Z,5.30
2019-04-14T01:01:07.054Z,5.30
2019-04-14T01:03:37.352Z,5.30
2019-04-14T01:06:07.657Z,5.30
2019-04-14T01:08:44.559Z,5.20
2019-04-14T01:11:14.557Z,5.40
2019-04-14T01:13:44.501Z,5.40
2019-04-14T01:16:18.926Z,5.40
2019-04-14T01:18:47.198Z,5.40
2019-04-14T01:21:17.438Z,5.30
2019-04-14T01:23:48.009Z,5.30
2019-04-14T01:26:18.191Z,5.30
2019-04-14T01:28:48.370Z,5.30
2019-04-14T01:31:18.480Z,5.20
2019-04-14T01:33:49.107Z,5.20
2019-04-14T01:36:19.213Z,5.20
2019-04-14T01:38:49.287Z,5.30
2019-04-14T01:41:19.400Z,5.30
2019-04-14T01:43:49.612Z,5.20
2019-04-14T01:46:24.705Z,5.20
2019-04-14T01:48:51.888Z,5.30
2019-04-14T01:51:44.204Z,5.20
2019-04-14T01:54:21.995Z,5.30
2019-04-14T02:00:26.936Z,5.20
2019-04-14T02:02:57.606Z,5.20
2019-04-14T02:05:27.779Z,5.10
2019-04-14T02:07:58.019Z,5.20
2019-04-14T02:10:28.098Z,5.10
2019-04-14T02:12:58.454Z,5.20
2019-04-14T02:15:28.670Z,5.20
2019-04-14T02:17:58.942Z,5.00
2019-04-14T02:20:29.647Z,5.10
2019-04-14T02:22:59.634Z,5.00
2019-04-14T02:25:29.631Z,5.00
2019-04-14T02:28:00.142Z,5.00
2019-04-14T02:30:36.285Z,5.00
2019-04-14T02:33:32.159Z,5.00
2019-04-14T02:36:06.020Z,5.10
2019-04-14T02:41:02.787Z,5.10
2019-04-14T02:43:37.986Z,5.00
2019-04-14T02:46:02.622Z,4.90
2019-04-14T02:51:13.745Z,5.00
2019-04-14T02:53:44.190Z,5.00
2019-04-14T02:56:16.722Z,5.00
2019-04-14T02:58:48.860Z,4.90
2019-04-14T03:03:43.460Z,4.80
2019-04-14T03:08:55.053Z,5.40
2019-04-14T03:11:25.426Z,4.80
2019-04-14T03:13:53.142Z,4.80
2019-04-14T03:16:33.084Z,4.70
2019-04-14T03:19:24.968Z,4.80
2019-04-14T03:22:12.319Z,4.80
2019-04-14T03:24:47.582Z,4.80
2019-04-14T03:27:47.858Z,4.80
2019-04-14T03:33:21.122Z,4.50
2019-04-14T03:37:59.482Z,4.70
2019-04-14T03:40:33.752Z,4.70
2019-04-14T03:45:43.298Z,4.70
2019-04-14T03:50:37.007Z,4.70
2019-04-14T03:53:16.282Z,4.70
2019-04-14T03:56:02.668Z,4.70
2019-04-14T03:58:31.377Z,4.70
2019-04-14T04:01:01.917Z,4.60
2019-04-14T04:03:32.474Z,4.70
2019-04-14T04:06:03.188Z,4.70
2019-04-14T04:08:33.411Z,4.60
2019-04-14T04:11:04.042Z,4.60
2019-04-14T04:13:34.532Z,4.60
2019-04-14T04:16:17.971Z,4.60
2019-04-14T04:18:57.959Z,4.60
2019-04-14T04:21:38.803Z,4.50
2019-04-14T04:24:30.619Z,4.50
2019-04-14T04:27:06.844Z,4.50
2019-04-14T04:29:50.679Z,4.50
2019-04-14T04:32:31.855Z,4.50
2019-04-14T04:35:10.727Z,4.50
2019-04-14T04:37:54.148Z,4.50
2019-04-14T04:40:28.929Z,4.60
2019-04-14T04:42:59.169Z,4.50
2019-04-14T04:45:29.984Z,4.50
2019-04-14T04:48:00.265Z,4.60
2019-04-14T04:50:30.382Z,4.50
2019-04-14T04:53:00.504Z,4.50
2019-04-14T04:55:30.676Z,4.40
2019-04-14T04:58:01.370Z,4.50
2019-04-14T05:00:31.373Z,4.40
2019-04-14T05:03:01.469Z,4.40
2019-04-14T05:06:07.258Z,4.50
2019-04-14T05:08:39.454Z,4.50
2019-04-14T05:11:16.519Z,4.50
2019-04-14T05:13:48.987Z,4.60
2019-04-14T05:16:19.244Z,4.60
2019-04-14T05:18:49.439Z,4.60
2019-04-14T05:21:19.343Z,4.60
2019-04-14T05:23:49.514Z,4.60
2019-04-14T05:26:19.907Z,4.60
2019-04-14T05:28:50.656Z,4.60
2019-04-14T05:31:20.791Z,4.60
2019-04-14T05:33:51.192Z,4.60
2019-04-14T05:36:21.477Z,4.60
2019-04-14T05:38:51.814Z,4.70
2019-04-14T05:41:22.266Z,4.80
2019-04-14T05:43:57.081Z,4.80
2019-04-14T05:46:25.150Z,4.70
2019-04-14T05:48:55.820Z,4.70
2019-04-14T05:51:26.434Z,4.60
2019-04-14T05:53:56.694Z,4.80
2019-04-14T05:56:27.464Z,4.80
2019-04-14T05:58:58.012Z,4.90
2019-04-14T06:01:29.009Z,4.90
2019-04-14T06:04:00.290Z,4.90
2019-04-14T06:06:30.274Z,5.00
2019-04-14T06:09:00.239Z,5.20
2019-04-14T06:11:30.142Z,5.30
2019-04-14T06:14:00.057Z,5.30
2019-04-14T06:16:29.888Z,5.30
2019-04-14T06:18:59.760Z,5.30
2019-04-14T06:21:29.769Z,5.30
2019-04-14T06:23:59.652Z,5.40
2019-04-14T06:26:29.500Z,5.50
2019-04-14T06:28:59.424Z,5.60
2019-04-14T06:31:51.038Z,5.50
2019-04-14T06:34:28.338Z,5.70
2019-04-14T06:37:15.454Z,5.80
2019-04-14T06:39:49.597Z,5.80
2019-04-14T06:42:19.511Z,6.10
2019-04-14T06:44:49.450Z,5.90
2019-04-14T06:47:19.345Z,6.10
2019-04-14T06:49:49.541Z,6.20
2019-04-14T06:52:19.561Z,6.40
2019-04-14T06:54:49.479Z,6.30
2019-04-14T06:57:19.376Z,6.30
2019-04-14T06:59:49.277Z,6.50
2019-04-14T07:02:22.275Z,6.90
2019-04-14T07:04:52.163Z,7.40
2019-04-14T07:07:22.080Z,7.40
2019-04-14T07:09:51.920Z,7.70
2019-04-14T07:12:21.746Z,8.00
2019-04-14T07:14:51.695Z,8.30
2019-04-14T07:17:21.629Z,8.40
2019-04-14T07:20:01.354Z,8.90
2019-04-14T07:24:53.241Z,8.50
2019-04-14T07:27:23.171Z,10.00
2019-04-14T07:30:01.953Z,10.00
2019-04-14T07:32:53.849Z,10.80
2019-04-14T07:35:41.669Z,10.50
2019-04-14T07:38:16.803Z,10.20
2019-04-14T07:41:04.844Z,10.40
2019-04-14T07:43:52.591Z,10.50
2019-04-14T07:46:44.517Z,10.60
2019-04-14T07:49:32.787Z,10.20
2019-04-14T07:52:20.466Z,9.10
2019-04-14T07:55:04.290Z,9.80
2019-04-14T07:57:53.164Z,10.90
2019-04-14T08:00:38.696Z,11.60
2019-04-14T08:03:13.305Z,12.60
2019-04-14T08:05:43.188Z,12.90
2019-04-14T08:08:13.127Z,11.80
2019-04-14T08:13:13.371Z,10.60
2019-04-14T08:15:43.330Z,10.60
2019-04-14T08:18:13.202Z,10.90
2019-04-14T08:20:43.270Z,10.90
2019-04-14T08:23:13.261Z,10.90
2019-04-14T08:25:43.197Z,11.50
2019-04-14T08:30:42.333Z,11.90
2019-04-14T08:33:12.312Z,11.40
2019-04-14T08:35:42.298Z,10.70
2019-04-14T08:38:12.231Z,11.00
2019-04-14T08:40:42.165Z,10.90
2019-04-14T08:43:21.968Z,11.50
2019-04-14T08:46:13.878Z,11.50
2019-04-14T08:48:47.234Z,11.40
2019-04-14T08:51:21.861Z,11.80
2019-04-14T08:57:10.536Z,12.00
2019-04-14T08:59:52.707Z,12.00
2019-04-14T09:02:54.813Z,11.80
2019-04-14T09:05:53.802Z,11.80
2019-04-14T09:08:27.923Z,11.70
2019-04-14T09:10:59.961Z,12.20
2019-04-14T09:13:31.928Z,12.70
2019-04-14T09:16:06.890Z,12.80
2019-04-14T09:18:36.797Z,12.40
2019-04-14T09:21:06.656Z,12.10
2019-04-14T09:23:38.218Z,11.30
2019-04-14T09:26:08.144Z,11.10
2019-04-14T09:28:38.247Z,10.90
2019-04-14T09:31:09.952Z,10.90
2019-04-14T09:33:39.878Z,10.70
2019-04-14T09:36:09.823Z,11.10
2019-04-14T09:38:41.650Z,11.70
2019-04-14T09:41:11.632Z,11.60
2019-04-14T09:43:41.605Z,11.10
2019-04-14T09:46:11.513Z,10.90
2019-04-14T09:48:42.921Z,10.70
2019-04-14T09:51:13.117Z,11.00
2019-04-14T09:53:43.074Z,11.20
2019-04-14T09:56:14.090Z,11.10
2019-04-14T09:58:44.163Z,11.20
2019-04-14T10:01:14.099Z,11.20
2019-04-14T10:03:44.074Z,12.00
2019-04-14T10:06:14.113Z,11.70
2019-04-14T10:08:44.063Z,11.70
2019-04-14T10:13:47.416Z,10.80
2019-04-14T10:16:17.368Z,10.80
2019-04-14T10:18:47.410Z,11.40
2019-04-14T10:21:18.009Z,11.60
2019-04-14T10:23:48.544Z,11.90
2019-04-14T10:26:19.889Z,12.50
2019-04-14T10:28:50.796Z,12.40
2019-04-14T10:31:21.089Z,12.50
2019-04-14T10:33:53.023Z,13.40
2019-04-14T10:36:23.082Z,13.70
2019-04-14T10:38:53.025Z,13.90
2019-04-14T10:41:23.049Z,14.00
2019-04-14T10:43:54.680Z,13.80
2019-04-14T10:46:24.780Z,13.30
2019-04-14T10:48:54.713Z,13.20
2019-04-14T10:51:30.207Z,13.70
2019-04-14T10:53:56.237Z,13.80
2019-04-14T10:56:26.193Z,13.00
2019-04-14T10:58:56.178Z,12.70
2019-04-14T11:01:26.161Z,12.20
2019-04-14T11:03:56.109Z,12.20
2019-04-14T11:06:38.976Z,12.10
2019-04-14T11:09:13.938Z,12.20
2019-04-14T11:11:44.617Z,12.50
2019-04-14T11:14:14.560Z,12.30
2019-04-14T11:16:44.513Z,12.30
2019-04-14T11:19:14.663Z,11.60
2019-04-14T11:21:44.622Z,11.10
2019-04-14T11:24:14.601Z,10.70
2019-04-14T11:26:44.524Z,10.90
2019-04-14T11:29:14.479Z,10.70
2019-04-14T11:31:54.826Z,10.70
2019-04-14T11:34:29.078Z,10.40
2019-04-14T11:37:20.869Z,10.40
2019-04-14T11:39:50.828Z,10.20
2019-04-14T11:42:20.721Z,10.00
2019-04-14T11:44:50.833Z,10.00
2019-04-14T11:47:21.042Z,10.00
2019-04-14T11:49:50.973Z,10.20
2019-04-14T11:52:20.927Z,10.00
2019-04-14T11:54:50.889Z,9.80
2019-04-14T11:57:20.830Z,9.90
2019-04-14T11:59:56.936Z,9.80
2019-04-14T12:02:45.729Z,9.60
2019-04-14T12:05:26.860Z,9.50
2019-04-14T12:08:11.803Z,9.40
2019-04-14T12:10:41.714Z,9.50
2019-04-14T12:13:11.646Z,9.50
2019-04-14T12:15:41.585Z,9.40
2019-04-14T12:18:11.554Z,9.50
2019-04-14T12:20:41.617Z,9.50
2019-04-14T12:23:11.533Z,9.50
2019-04-14T12:25:41.477Z,9.50
2019-04-14T12:28:11.429Z,9.50
2019-04-14T12:30:41.994Z,9.60
2019-04-14T12:33:12.037Z,9.60
2019-04-14T12:35:43.010Z,9.60
2019-04-14T12:38:13.022Z,9.50
2019-04-14T12:40:42.984Z,9.30
2019-04-14T12:43:37.860Z,9.70
2019-04-14T12:46:20.815Z,10.10
2019-04-14T12:48:57.488Z,9.50
2019-04-14T12:51:35.582Z,9.80
2019-04-14T12:54:06.673Z,9.70
2019-04-14T12:56:36.696Z,9.90
2019-04-14T12:59:25.534Z,9.90
2019-04-14T13:02:05.282Z,9.90
2019-04-14T13:04:35.160Z,9.80
2019-04-14T13:07:05.594Z,9.80
2019-04-14T13:09:35.527Z,10.00
2019-04-14T13:12:05.515Z,10.20
2019-04-14T13:14:35.426Z,10.10
2019-04-14T13:17:05.613Z,10.10
2019-04-14T13:19:35.529Z,10.20
2019-04-14T13:22:05.404Z,10.20
2019-04-14T13:24:35.338Z,10.30
2019-04-14T13:27:05.301Z,10.20
2019-04-14T13:29:35.258Z,10.10
2019-04-14T13:32:06.225Z,10.20
2019-04-14T13:34:36.141Z,10.20
2019-04-14T13:37:06.098Z,9.90
2019-04-14T13:39:36.005Z,9.80
2019-04-14T13:42:05.923Z,9.90
2019-04-14T13:44:35.888Z,9.80
2019-04-14T13:47:06.135Z,9.80
2019-04-14T13:49:36.036Z,9.90
2019-04-14T13:52:06.131Z,9.80
2019-04-14T13:54:36.091Z,9.70
2019-04-14T13:57:06.023Z,9.70
2019-04-14T13:59:35.930Z,9.70
2019-04-14T14:09:34.117Z,9.60
2019-04-14T14:15:04.610Z,10.20
2019-04-14T14:20:27.016Z,9.60
2019-04-14T14:28:20.575Z,10.20
2019-04-14T14:38:18.181Z,9.70
2019-04-14T14:40:49.233Z,9.80
2019-04-14T14:51:35.713Z,10.00
2019-04-14T14:54:05.584Z,9.80
2019-04-14T14:59:05.177Z,9.60
2019-04-14T15:01:35.025Z,9.60
2019-04-14T15:06:34.156Z,9.60
2019-04-14T15:14:05.447Z,9.40
2019-04-14T15:19:04.670Z,9.50
2019-04-14T15:21:34.498Z,9.60
2019-04-14T15:26:33.865Z,9.60
2019-04-14T15:29:03.728Z,9.60
2019-04-14T15:31:33.800Z,9.70
2019-04-14T15:34:03.742Z,9.70
2019-04-14T15:36:33.684Z,9.70
2019-04-14T15:39:05.489Z,9.80
2019-04-14T15:44:04.559Z,10.00
2019-04-14T15:54:02.321Z,9.70
2019-04-14T15:56:47.638Z,9.60
2019-04-14T15:59:33.581Z,9.70
2019-04-14T16:04:50.083Z,9.70
2019-04-14T16:07:38.961Z,9.50
2019-04-14T16:18:38.685Z,9.20
2019-04-14T16:23:49.985Z,9.00
2019-04-14T16:32:20.845Z,9.10
2019-04-14T16:39:55.078Z,9.20
2019-04-14T16:49:52.732Z,9.00
2019-04-14T16:52:44.662Z,9.00
2019-04-14T16:55:19.538Z,9.30
2019-04-14T16:58:07.462Z,9.00
2019-04-14T17:05:39.167Z,9.00
2019-04-14T17:08:09.354Z,9.00
2019-04-14T17:10:39.279Z,8.70
2019-04-14T17:15:57.527Z,8.80
2019-04-14T17:18:58.317Z,8.70
2019-04-14T17:24:17.151Z,8.80
2019-04-14T17:38:05.802Z,8.90
2019-04-14T17:40:48.533Z,8.70
2019-04-14T17:43:40.093Z,8.70
2019-04-14T17:46:31.767Z,8.80
2019-04-14T18:00:26.149Z,8.20
2019-04-14T18:05:35.586Z,8.30
2019-04-14T18:08:12.433Z,8.50
2019-04-14T18:10:49.607Z,8.60
2019-04-14T18:13:38.484Z,8.40
2019-04-14T18:16:26.408Z,8.30
2019-04-14T18:19:29.517Z,8.50
2019-04-14T18:21:59.417Z,8.00
2019-04-14T18:24:41.330Z,8.40
2019-04-14T18:35:13.639Z,8.60
2019-04-14T18:38:05.357Z,8.50
2019-04-14T18:40:43.137Z,8.30
2019-04-14T18:43:25.426Z,8.20
2019-04-14T18:48:58.702Z,8.20
2019-04-14T18:51:40.006Z,8.30
2019-04-14T19:00:22.384Z,8.30
2019-04-14T19:05:21.541Z,8.00
2019-04-14T19:10:20.761Z,8.20
2019-04-14T19:13:21.725Z,8.20
2019-04-14T19:16:02.657Z,8.20
2019-04-14T19:21:14.114Z,8.30
2019-04-14T19:23:46.422Z,8.40
2019-04-14T19:38:44.833Z,8.70
2019-04-14T19:41:14.717Z,8.40
2019-04-14T19:51:12.321Z,8.30
2019-04-14T19:53:42.204Z,8.30
2019-04-14T19:58:41.411Z,8.20
2019-04-14T20:03:40.568Z,8.20
2019-04-14T20:06:10.511Z,8.20
2019-04-14T20:08:40.321Z,8.10
2019-04-14T20:11:10.294Z,8.20
2019-04-14T20:13:44.341Z,8.10
2019-04-14T20:24:35.508Z,8.00
2019-04-14T20:29:53.038Z,8.10
2019-04-14T20:34:56.206Z,7.80
2019-04-14T20:44:53.758Z,8.00
2019-04-14T20:47:23.818Z,8.00
2019-04-14T20:49:53.698Z,8.10
2019-04-14T20:54:52.826Z,8.00
2019-04-14T20:59:52.113Z,7.90
2019-04-14T21:02:41.941Z,7.90
2019-04-14T21:08:12.166Z,7.90
2019-04-14T21:10:47.501Z,8.00
2019-04-14T21:16:17.442Z,7.80
2019-04-14T21:18:50.195Z,7.70
2019-04-14T21:21:30.366Z,7.70
2019-04-14T21:24:08.966Z,7.70
2019-04-14T21:29:41.053Z,7.60
2019-04-14T21:32:23.694Z,7.80
2019-04-14T21:35:04.784Z,7.60
2019-04-14T21:37:43.903Z,7.80
2019-04-14T21:40:21.701Z,7.70
2019-04-14T21:42:51.582Z,7.70
2019-04-14T21:45:21.488Z,7.70
2019-04-14T21:47:51.347Z,7.70
2019-04-14T21:55:20.340Z,7.60
2019-04-14T21:58:15.669Z,7.70
2019-04-14T22:01:50.587Z,7.60
2019-04-14T22:04:45.831Z,7.00
2019-04-14T22:07:43.818Z,7.20
2019-04-14T22:10:20.954Z,7.20
2019-04-14T22:12:50.958Z,7.20
2019-04-14T22:15:20.991Z,7.10
2019-04-14T22:17:50.966Z,7.00
2019-04-14T22:22:50.097Z,7.10
2019-04-14T22:27:49.193Z,7.00
2019-04-14T22:40:16.293Z,6.90
2019-04-14T22:47:44.654Z,6.90
2019-04-14T22:50:14.697Z,6.70
2019-04-14T22:55:14.162Z,6.90
2019-04-14T22:57:44.211Z,6.90
2019-04-14T23:00:22.010Z,6.90
2019-04-14T23:03:02.056Z,6.90
2019-04-14T23:06:02.865Z,7.00
2019-04-14T23:08:43.061Z,6.90
2019-04-14T23:11:30.682Z,7.00
2019-04-14T23:17:05.326Z,6.80
2019-04-14T23:22:18.430Z,6.80
2019-04-14T23:27:17.810Z,6.80
2019-04-14T23:32:17.045Z,6.70
2019-04-14T23:34:47.106Z,6.60
2019-04-14T23:37:17.017Z,6.60
2019-04-14T23:42:16.186Z,6.50
2019-04-14T23:47:15.321Z,6.70
2019-04-14T23:49:45.191Z,6.60
2019-04-14T23:52:15.038Z,6.50
2019-04-14T23:54:45.109Z,6.50
2019-04-14T23:57:15.025Z,6.50
